createdAt,value
2023-02-08T00:00:04.510Z,-3.47
2023-02-08T00:02:35.715Z,-3.44
2023-02-08T00:05:03.863Z,-3.42
2023-02-08T00:07:33.374Z,-3.44
2023-02-08T00:10:01.461Z,-3.41
2023-02-08T00:12:30.934Z,-3.43
2023-02-08T00:14:59.080Z,-3.39
2023-02-08T00:17:27.158Z,-3.34
2023-02-08T00:19:55.230Z,-3.34
2023-02-08T00:22:23.425Z,-3.37
2023-02-08T00:24:52.874Z,-3.51
2023-02-08T00:27:21.257Z,-3.54
2023-02-08T00:29:50.359Z,-3.48
2023-02-08T00:32:18.448Z,-3.48
2023-02-08T00:34:46.536Z,-3.54
2023-02-08T00:37:14.713Z,-3.50
2023-02-08T00:39:43.356Z,-3.47
2023-02-08T00:42:12.730Z,-3.47
2023-02-08T00:44:40.897Z,-3.44
2023-02-08T00:47:09.020Z,-3.45
2023-02-08T00:49:37.696Z,-3.40
2023-02-08T00:52:06.250Z,-3.46
2023-02-08T00:54:34.442Z,-3.42
2023-02-08T00:57:02.503Z,-3.41
2023-02-08T00:59:32.000Z,-3.40
2023-02-08T01:02:00.177Z,-3.34
2023-02-08T01:04:28.278Z,-3.31
2023-02-08T01:06:56.304Z,-3.28
2023-02-08T01:09:24.398Z,-3.35
2023-02-08T01:11:52.493Z,-3.40
2023-02-08T01:14:20.577Z,-3.37
2023-02-08T01:16:50.031Z,-3.37
2023-02-08T01:19:18.199Z,-3.39
2023-02-08T01:21:46.299Z,-3.46
2023-02-08T01:24:14.370Z,-3.47
2023-02-08T01:26:42.437Z,-3.49
2023-02-08T01:29:10.582Z,-3.55
2023-02-08T01:31:40.803Z,-3.54
2023-02-08T01:34:10.777Z,-3.59
2023-02-08T01:36:39.262Z,-3.57
2023-02-08T01:39:09.381Z,-3.57
2023-02-08T01:41:38.433Z,-3.51
2023-02-08T01:44:29.895Z,-3.60
2023-02-08T01:46:58.132Z,-3.57
2023-02-08T01:49:29.218Z,-3.58
2023-02-08T01:51:59.470Z,-3.52
2023-02-08T01:54:29.063Z,-3.56
2023-02-08T01:56:57.390Z,-3.54
2023-02-08T01:59:28.330Z,-3.50
2023-02-08T02:01:57.638Z,-3.52
2023-02-08T02:04:27.513Z,-3.57
2023-02-08T02:06:57.170Z,-3.55
2023-02-08T02:09:27.526Z,-3.57
2023-02-08T02:11:56.163Z,-3.65
2023-02-08T02:14:26.166Z,-3.70
2023-02-08T02:16:54.354Z,-3.75
2023-02-08T02:19:27.219Z,-3.78
2023-02-08T02:22:04.014Z,-3.71
2023-02-08T02:24:52.825Z,-3.69
2023-02-08T02:27:27.491Z,-3.64
2023-02-08T02:30:21.309Z,-3.73
2023-02-08T02:32:57.138Z,-3.68
2023-02-08T02:35:29.413Z,-3.68
2023-02-08T02:38:08.791Z,-3.68
2023-02-08T02:40:42.854Z,-3.68
2023-02-08T02:43:32.888Z,-3.67
2023-02-08T02:46:08.659Z,-3.74
2023-02-08T02:48:42.804Z,-3.72
2023-02-08T02:51:11.932Z,-3.70
2023-02-08T02:53:46.328Z,-3.76
2023-02-08T02:56:16.787Z,-3.72
2023-02-08T02:58:45.786Z,-3.68
2023-02-08T03:01:13.924Z,-3.66
2023-02-08T03:03:43.480Z,-3.64
2023-02-08T03:06:13.709Z,-3.65
2023-02-08T03:09:05.733Z,-3.67
2023-02-08T03:11:35.131Z,-3.64
2023-02-08T03:14:05.421Z,-3.64
2023-02-08T03:16:38.797Z,-3.71
2023-02-08T03:19:11.356Z,-3.64
2023-02-08T03:21:42.047Z,-3.63
2023-02-08T03:24:16.054Z,-3.64
2023-02-08T03:26:50.943Z,-3.65
2023-02-08T03:29:22.346Z,-3.64
2023-02-08T03:31:55.523Z,-3.72
2023-02-08T03:34:30.332Z,-3.76
2023-02-08T03:37:01.536Z,-3.70
2023-02-08T03:39:31.561Z,-3.72
2023-02-08T03:42:00.954Z,-3.74
2023-02-08T03:44:31.959Z,-3.73
2023-02-08T03:47:02.857Z,-3.74
2023-02-08T03:49:34.945Z,-3.70
2023-02-08T03:52:04.817Z,-3.73
2023-02-08T03:54:36.330Z,-3.70
2023-02-08T03:57:08.025Z,-3.67
2023-02-08T03:59:38.980Z,-3.64
2023-02-08T04:02:08.983Z,-3.62
2023-02-08T04:04:40.457Z,-3.60
2023-02-08T04:07:08.408Z,-3.64
2023-02-08T04:09:38.764Z,-3.64
2023-02-08T04:12:07.276Z,-3.77
2023-02-08T04:14:35.340Z,-3.81
2023-02-08T04:17:03.312Z,-3.88
2023-02-08T04:19:31.626Z,-3.83
2023-02-08T04:22:01.004Z,-3.85
2023-02-08T04:24:29.148Z,-3.87
2023-02-08T04:26:57.319Z,-3.88
2023-02-08T04:29:25.451Z,-3.88
2023-02-08T04:31:53.566Z,-3.85
2023-02-08T04:34:21.746Z,-3.86
2023-02-08T04:36:50.010Z,-3.84
2023-02-08T04:39:19.398Z,-3.83
2023-02-08T04:41:47.487Z,-3.82
2023-02-08T04:44:16.045Z,-3.77
2023-02-08T04:46:44.290Z,-3.76
2023-02-08T04:49:12.393Z,-3.76
2023-02-08T04:51:40.527Z,-3.71
2023-02-08T04:54:08.789Z,-3.70
2023-02-08T04:56:38.766Z,-3.66
2023-02-08T04:59:06.832Z,-3.62
2023-02-08T05:01:34.961Z,-3.60
2023-02-08T05:04:03.040Z,-3.61
2023-02-08T05:06:31.075Z,-3.57
2023-02-08T05:08:59.225Z,-3.52
2023-02-08T05:11:27.645Z,-3.48
2023-02-08T05:13:57.092Z,-3.45
2023-02-08T05:16:25.152Z,-3.38
2023-02-08T05:18:53.171Z,-3.35
2023-02-08T05:21:24.060Z,-3.31
2023-02-08T05:23:52.193Z,-3.25
2023-02-08T05:26:20.372Z,-3.23
2023-02-08T05:28:48.551Z,-3.23
2023-02-08T05:31:19.328Z,-3.19
2023-02-08T05:33:47.800Z,-3.18
2023-02-08T05:36:15.890Z,-3.13
2023-02-08T05:38:43.984Z,-3.15
2023-02-08T05:41:12.073Z,-3.10
2023-02-08T05:43:40.162Z,-3.07
2023-02-08T05:46:08.250Z,-3.04
2023-02-08T05:48:37.733Z,-3.03
2023-02-08T05:51:05.821Z,-3.01
2023-02-08T05:53:33.972Z,-3.03
2023-02-08T05:56:02.009Z,-3.02
2023-02-08T05:58:30.419Z,-2.98
2023-02-08T06:00:58.429Z,-2.93
2023-02-08T06:03:26.645Z,-2.92
2023-02-08T06:05:56.127Z,-2.90
2023-02-08T06:08:24.242Z,-2.93
2023-02-08T06:10:52.407Z,-2.91
2023-02-08T06:13:20.442Z,-2.88
2023-02-08T06:15:48.507Z,-2.86
2023-02-08T06:18:16.734Z,-2.87
2023-02-08T06:20:44.826Z,-2.82
2023-02-08T06:23:14.248Z,-2.86
2023-02-08T06:25:42.393Z,-2.83
2023-02-08T06:28:10.975Z,-2.86
2023-02-08T06:30:39.765Z,-2.84
2023-02-08T06:33:08.047Z,-2.81
2023-02-08T06:35:36.138Z,-2.78
2023-02-08T06:38:04.253Z,-2.85
2023-02-08T06:40:33.733Z,-2.91
2023-02-08T06:43:01.892Z,-2.89
2023-02-08T06:45:29.922Z,-2.86
2023-02-08T06:47:58.034Z,-2.84
2023-02-08T06:50:26.093Z,-2.82
2023-02-08T06:52:54.156Z,-2.78
2023-02-08T06:55:22.219Z,-2.73
2023-02-08T06:57:54.290Z,-2.73
2023-02-08T07:00:22.424Z,-2.71
2023-02-08T07:02:51.575Z,-2.67
2023-02-08T07:05:19.875Z,-2.68
2023-02-08T07:07:49.063Z,-2.67
2023-02-08T07:10:17.295Z,-2.65
2023-02-08T07:12:45.416Z,-2.70
2023-02-08T07:15:14.936Z,-2.72
2023-02-08T07:17:42.944Z,-2.69
2023-02-08T07:20:11.553Z,-2.68
2023-02-08T07:22:39.675Z,-2.65
2023-02-08T07:25:08.806Z,-2.79
2023-02-08T07:27:37.162Z,-2.72
2023-02-08T07:30:05.654Z,-2.73
2023-02-08T07:32:35.210Z,-2.74
2023-02-08T07:35:03.341Z,-2.77
2023-02-08T07:37:31.911Z,-2.77
2023-02-08T07:39:59.969Z,-2.71
2023-02-08T07:42:28.007Z,-2.66
2023-02-08T07:45:09.920Z,-2.62
2023-02-08T07:47:39.375Z,-2.58
2023-02-08T07:50:07.850Z,-2.56
2023-02-08T07:52:35.882Z,-2.58
2023-02-08T07:55:03.942Z,-2.56
2023-02-08T07:57:32.121Z,-2.49
2023-02-08T08:00:00.183Z,-2.46
2023-02-08T08:02:28.284Z,-2.50
2023-02-08T08:04:57.797Z,-2.54
2023-02-08T08:07:25.831Z,-2.59
2023-02-08T08:09:53.910Z,-2.63
2023-02-08T08:12:22.107Z,-2.63
2023-02-08T08:14:50.093Z,-2.61
2023-02-08T08:17:18.479Z,-2.69
2023-02-08T08:19:46.659Z,-2.64
2023-02-08T08:22:16.157Z,-2.64
2023-02-08T08:24:44.191Z,-2.72
2023-02-08T08:27:12.223Z,-2.70
2023-02-08T08:29:40.666Z,-2.62
2023-02-08T08:32:11.496Z,-2.62
2023-02-08T08:34:39.864Z,-2.60
2023-02-08T08:37:07.925Z,-2.64
2023-02-08T08:39:38.181Z,-2.63
2023-02-08T08:42:06.264Z,-2.59
2023-02-08T08:44:34.451Z,-2.53
2023-02-08T08:47:02.559Z,-2.46
2023-02-08T08:49:30.668Z,-2.49
2023-02-08T08:51:59.153Z,-2.44
2023-02-08T08:54:27.254Z,-2.36
2023-02-08T08:56:56.672Z,-2.34
2023-02-08T08:59:25.144Z,-2.32
2023-02-08T09:01:53.444Z,-2.33
2023-02-08T09:04:22.964Z,-2.35
2023-02-08T09:06:51.287Z,-2.28
2023-02-08T09:09:19.371Z,-2.24
2023-02-08T09:11:47.717Z,-2.17
2023-02-08T09:14:17.247Z,-2.16
2023-02-08T09:16:48.177Z,-2.13
2023-02-08T09:19:16.719Z,-2.07
2023-02-08T09:21:44.969Z,-2.05
2023-02-08T09:24:13.207Z,-2.08
2023-02-08T09:26:41.336Z,-2.02
2023-02-08T09:29:09.398Z,-2.05
2023-02-08T09:31:39.740Z,-2.04
2023-02-08T09:34:08.621Z,-2.11
2023-02-08T09:36:37.283Z,-2.00
2023-02-08T09:39:07.196Z,-1.98
2023-02-08T09:41:42.996Z,-2.00
2023-02-08T09:44:16.785Z,-1.92
2023-02-08T09:46:50.616Z,-1.84
2023-02-08T09:49:20.797Z,-1.77
2023-02-08T09:51:52.523Z,-1.69
2023-02-08T09:54:28.015Z,-1.61
2023-02-08T09:56:56.703Z,-1.56
2023-02-08T09:59:27.092Z,-1.49
2023-02-08T10:02:00.853Z,-1.43
2023-02-08T10:04:33.592Z,-1.49
2023-02-08T10:07:01.801Z,-1.48
2023-02-08T10:09:30.096Z,-1.47
